SBFN Informações do Aeroporto

Informações da Pista
Pista 12 Comprimento 6053 ft Largura 148 ft
Elevação 0 ft Limite 0 ft Heading 0
Pista 30 Comprimento 6053 ft Largura 148 ft
Elevação 0 ft Limite 0 ft Heading 0
Frequências do Aeroporto
Tipo AFIS Nome NORONHA RD Frequência 125.9 MHZ
Navaids do Aeroporto
Tipo VOR-DME Nome Fernando Frequência 113700 KHZ
Tipo NDB Nome Noronha Frequência 300 KHZ
Informações meteorológicas do aeroporto e NOTAM
ADDS - METARS form results

(2157 UTC 16 November 2018)
Data provider http://aviationweather.gov/metar/data/
 
METAR text: SBFN 162100Z 14011KT 9999 SCT017 27/23 Q1014
Conditions at: SBFN (FERNANDO DE NORO, BR) observed 2100 UTC 16 November 2018
Temperature: 27.0°C (81°F)
Dewpoint: 23.0°C (73°F) [RH = 79%]
Pressure (altimeter): 29.94 inches Hg (1014.0 mb)
Winds: from the SE (140 degrees) at 13 MPH (11 knots; 5.7 m/s)
Visibility: 6 or more miles (10+ km)
Ceiling: at least 12,000 feet AGL
Clouds: scattered clouds at 1700 feet AGL
Weather: no significant weather observed at this time

Forecast for: SBFN (FERNANDO DE NORO, BR)
Text: TAF SBFN 161600Z 1618/1706 13013KT 9999 SCT018 TX30/1618Z TN26/1623Z RMK PEU
Forecast period: 1800 UTC 16 November 2018 to 0600 UTC 17 November 2018
Forecast type: FROM: standard forecast or significant change
Winds: from the SE (130 degrees) at 15 MPH (13 knots; 6.7 m/s)
Visibility: 6 or more miles 10+ km)
Ceiling: at least 12,000 feet AGL
Clouds: scattered clouds at 1800 feet AGL
Weather: PE  (moderate ice pellets)